createdAt,value
2018-09-08T00:00:45.129Z,99176.48
2018-09-08T00:03:14.181Z,99181.48
2018-09-08T00:05:43.342Z,99180.90
2018-09-08T00:08:12.229Z,99176.41
2018-09-08T00:10:41.339Z,99187.01
2018-09-08T00:13:10.363Z,99182.73
2018-09-08T00:15:44.345Z,99185.77
2018-09-08T00:18:18.389Z,99181.42
2018-09-08T00:20:52.322Z,99184.83
2018-09-08T00:23:26.517Z,99187.70
2018-09-08T00:26:00.699Z,99182.83
2018-09-08T00:28:36.593Z,99177.91
2018-09-08T00:31:05.747Z,99189.27
2018-09-08T00:33:34.769Z,99178.22
2018-09-08T00:36:03.962Z,99186.80
2018-09-08T00:38:33.009Z,99178.87
2018-09-08T00:41:02.079Z,99174.84
2018-09-08T00:43:31.431Z,99177.06
2018-09-08T00:46:00.376Z,99183.77
2018-09-08T00:48:29.397Z,99180.74
2018-09-08T00:50:58.645Z,99186.45
2018-09-08T00:53:31.348Z,99189.13
2018-09-08T00:56:00.524Z,99191.53
2018-09-08T00:58:29.606Z,99189.63
2018-09-08T01:00:58.654Z,99187.11
2018-09-08T01:03:27.640Z,99188.86
2018-09-08T01:05:56.615Z,99190.55
2018-09-08T01:08:25.534Z,99185.90
2018-09-08T01:10:54.485Z,99187.15
2018-09-08T01:13:23.492Z,99183.03
2018-09-08T01:15:52.487Z,99188.36
2018-09-08T01:18:21.496Z,99190.38
2018-09-08T01:20:50.605Z,99188.54
2018-09-08T01:23:19.625Z,99187.63
2018-09-08T01:25:49.791Z,99194.34
2018-09-08T01:28:18.633Z,99192.25
2018-09-08T01:30:48.085Z,99197.22
2018-09-08T01:33:17.092Z,99201.70
2018-09-08T01:35:46.123Z,99206.15
2018-09-08T01:38:15.346Z,99211.16
2018-09-08T01:40:44.636Z,99205.69
2018-09-08T01:43:13.788Z,99211.89
2018-09-08T01:45:42.708Z,99212.00
2018-09-08T01:48:11.602Z,99212.88
2018-09-08T01:50:40.592Z,99211.49
2018-09-08T01:53:09.559Z,99213.22
2018-09-08T01:55:38.529Z,99215.86
2018-09-08T01:58:07.408Z,99210.66
2018-09-08T02:00:36.380Z,99210.68
2018-09-08T02:03:05.735Z,99205.74
2018-09-08T02:05:37.846Z,99223.63
2018-09-08T02:08:07.458Z,99219.45
2018-09-08T02:10:36.417Z,99215.39
2018-09-08T02:13:05.422Z,99215.61
2018-09-08T02:15:34.340Z,99218.07
2018-09-08T02:18:03.191Z,99210.19
2018-09-08T02:20:31.976Z,99210.59
2018-09-08T02:23:01.931Z,99210.91
2018-09-08T02:25:30.964Z,99211.23
2018-09-08T02:28:03.460Z,99211.84
2018-09-08T02:30:32.964Z,99219.98
2018-09-08T02:33:01.788Z,99217.55
2018-09-08T02:35:30.909Z,99226.41
2018-09-08T02:37:59.944Z,99227.61
2018-09-08T02:40:29.829Z,99223.44
2018-09-08T02:42:58.821Z,99220.88
2018-09-08T02:45:27.707Z,99222.70
2018-09-08T02:47:56.667Z,99225.23
2018-09-08T02:50:36.612Z,99226.13
2018-09-08T02:53:04.768Z,99220.52
2018-09-08T02:55:32.846Z,99227.92
2018-09-08T02:58:00.610Z,99226.09
2018-09-08T03:00:28.473Z,99224.55
2018-09-08T03:02:55.987Z,99227.77
2018-09-08T03:05:23.810Z,99222.82
2018-09-08T03:07:51.363Z,99229.89
2018-09-08T03:10:19.409Z,99222.13
2018-09-08T03:12:46.877Z,99224.41
2018-09-08T03:15:14.343Z,99223.76
2018-09-08T03:17:41.858Z,99229.17
2018-09-08T03:20:09.425Z,99226.09
2018-09-08T03:22:36.849Z,99228.06
2018-09-08T03:25:04.346Z,99229.46
2018-09-08T03:27:31.994Z,99229.13
2018-09-08T03:29:59.595Z,99227.49
2018-09-08T03:32:27.108Z,99233.42
2018-09-08T03:34:58.053Z,99237.23
2018-09-08T03:37:25.682Z,99241.45
2018-09-08T03:39:53.194Z,99239.26
2018-09-08T03:42:20.661Z,99238.42
2018-09-08T03:44:48.126Z,99249.06
2018-09-08T03:47:15.698Z,99247.08
2018-09-08T03:49:43.225Z,99247.13
2018-09-08T03:52:10.758Z,99248.95
2018-09-08T03:54:38.295Z,99248.61
2018-09-08T03:57:06.049Z,99254.10
2018-09-08T03:59:33.469Z,99253.95
2018-09-08T04:02:00.885Z,99252.78
2018-09-08T04:04:29.797Z,99258.20
2018-09-08T04:06:58.716Z,99255.80
2018-09-08T04:09:27.640Z,99262.80
2018-09-08T04:11:56.688Z,99254.05
2018-09-08T04:14:25.769Z,99263.77
2018-09-08T04:16:55.746Z,99256.17
2018-09-08T04:19:24.648Z,99256.47
2018-09-08T04:21:53.658Z,99261.87
2018-09-08T04:24:22.470Z,99255.59
2018-09-08T04:26:52.885Z,99258.91
2018-09-08T04:29:21.835Z,99255.39
2018-09-08T04:31:50.712Z,99262.13
2018-09-08T04:34:19.669Z,99266.59
2018-09-08T04:36:48.640Z,99263.08
2018-09-08T04:39:17.610Z,99271.95
2018-09-08T04:41:47.461Z,99265.00
2018-09-08T04:44:16.360Z,99267.16
2018-09-08T04:46:45.358Z,99276.37
2018-09-08T04:49:14.407Z,99277.18
2018-09-08T04:51:43.352Z,99276.66
2018-09-08T04:54:12.326Z,99279.45
2018-09-08T04:56:41.284Z,99283.59
2018-09-08T04:59:11.204Z,99280.25
2018-09-08T05:01:40.132Z,99282.48
2018-09-08T05:04:09.369Z,99279.95
2018-09-08T05:06:38.295Z,99284.77
2018-09-08T05:09:09.848Z,99289.52
2018-09-08T05:11:38.648Z,99290.97
2018-09-08T05:14:07.706Z,99295.75
2018-09-08T05:16:36.758Z,99293.75
2018-09-08T05:19:06.495Z,99290.89
2018-09-08T05:21:35.299Z,99299.57
2018-09-08T05:24:04.305Z,99300.72
2018-09-08T05:26:33.267Z,99309.19
2018-09-08T05:29:02.195Z,99307.24
2018-09-08T05:31:31.376Z,99307.70
2018-09-08T05:34:00.396Z,99309.81
2018-09-08T05:36:29.319Z,99308.89
2018-09-08T05:39:00.213Z,99302.72
2018-09-08T05:41:29.319Z,99309.19
2018-09-08T05:43:58.302Z,99305.22
2018-09-08T05:48:55.340Z,99310.47
2018-09-08T05:51:24.187Z,99298.64
2018-09-08T05:53:53.237Z,99301.40
2018-09-08T05:56:22.558Z,99298.26
2018-09-08T05:58:51.435Z,99302.88
2018-09-08T06:01:20.759Z,99303.05
2018-09-08T06:03:49.551Z,99300.23
2018-09-08T06:06:18.614Z,99301.11
2018-09-08T06:08:49.754Z,99302.48
2018-09-08T06:11:20.015Z,99303.53
2018-09-08T06:13:48.884Z,99307.42
2018-09-08T06:16:17.960Z,99301.39
2018-09-08T06:18:50.180Z,99302.58
2018-09-08T06:21:19.190Z,99306.47
2018-09-08T06:23:48.012Z,99306.82
2018-09-08T06:26:17.379Z,99310.85
2018-09-08T06:28:50.224Z,99315.45
2018-09-08T06:31:19.041Z,99309.20
2018-09-08T06:33:48.240Z,99311.89
2018-09-08T06:36:17.276Z,99315.08
2018-09-08T06:38:46.240Z,99313.73
2018-09-08T06:41:15.144Z,99317.59
2018-09-08T06:43:44.102Z,99320.42
2018-09-08T06:46:13.049Z,99322.61
2018-09-08T06:48:41.877Z,99323.61
2018-09-08T06:51:11.009Z,99318.67
2018-09-08T06:53:39.986Z,99318.49
2018-09-08T06:56:08.890Z,99323.30
2018-09-08T06:58:37.804Z,99323.92
2018-09-08T07:01:06.956Z,99327.06
2018-09-08T07:03:39.529Z,99323.16
2018-09-08T07:06:08.394Z,99336.19
2018-09-08T07:08:37.397Z,99334.66
2018-09-08T07:11:06.638Z,99332.58
2018-09-08T07:13:36.113Z,99336.55
2018-09-08T07:16:05.027Z,99336.83
2018-09-08T07:18:34.094Z,99333.05
2018-09-08T07:21:02.993Z,99339.85
2018-09-08T07:23:32.421Z,99333.70
2018-09-08T07:26:01.393Z,99340.08
2018-09-08T07:28:30.568Z,99333.28
2018-09-08T07:30:59.416Z,99334.95
2018-09-08T07:33:28.889Z,99334.17
2018-09-08T07:35:57.689Z,99335.73
2018-09-08T07:38:26.633Z,99338.70
2018-09-08T07:40:55.779Z,99340.69
2018-09-08T07:43:24.865Z,99331.59
2018-09-08T07:45:53.983Z,99336.13
2018-09-08T07:48:23.076Z,99329.95
2018-09-08T07:50:51.872Z,99327.73
2018-09-08T07:55:58.854Z,99332.72
2018-09-08T07:58:27.957Z,99334.16
2018-09-08T08:00:57.030Z,99336.72
2018-09-08T08:03:26.084Z,99339.12
2018-09-08T08:05:55.057Z,99329.22
2018-09-08T08:08:23.987Z,99327.73
2018-09-08T08:10:53.794Z,99329.38
2018-09-08T08:13:22.929Z,99333.17
2018-09-08T08:15:51.862Z,99333.52
2018-09-08T08:18:21.169Z,99332.56
2018-09-08T08:20:50.130Z,99331.91
2018-09-08T08:23:19.085Z,99330.82
2018-09-08T08:25:48.107Z,99328.08
2018-09-08T08:28:17.020Z,99327.77
2018-09-08T08:30:45.963Z,99327.67
2018-09-08T08:33:14.884Z,99334.31
2018-09-08T08:35:43.789Z,99324.81
2018-09-08T08:38:12.741Z,99318.72
2018-09-08T08:40:42.082Z,99322.25
2018-09-08T08:43:11.014Z,99317.09
2018-09-08T08:45:40.143Z,99317.43
2018-09-08T08:48:09.362Z,99326.94
2018-09-08T08:50:49.012Z,99326.02
2018-09-08T08:53:31.069Z,99325.17
2018-09-08T08:55:59.916Z,99333.97
2018-09-08T08:58:28.844Z,99321.17
2018-09-08T09:00:57.863Z,99324.01
2018-09-08T09:03:26.720Z,99320.36
2018-09-08T09:05:55.681Z,99316.78
2018-09-08T09:08:25.457Z,99321.58
2018-09-08T09:10:53.981Z,99314.41
2018-09-08T09:13:22.924Z,99317.49
2018-09-08T09:15:51.950Z,99305.09
2018-09-08T09:19:32.930Z,99306.33
2018-09-08T09:22:13.302Z,99299.00
2018-09-08T09:24:51.415Z,99309.52
2018-09-08T09:27:20.009Z,99307.31
2018-09-08T09:29:48.938Z,99306.72
2018-09-08T09:32:17.832Z,99308.29
2018-09-08T09:34:47.080Z,99304.38
2018-09-08T09:37:16.095Z,99290.31
2018-09-08T09:39:45.125Z,99300.42
2018-09-08T09:42:14.574Z,99295.25
2018-09-08T09:44:43.477Z,99294.56
2018-09-08T09:47:12.479Z,99295.89
2018-09-08T09:49:41.404Z,99297.17
2018-09-08T09:52:10.392Z,99291.58
2018-09-08T09:54:39.413Z,99288.34
2018-09-08T09:57:08.487Z,99288.09
2018-09-08T09:59:37.433Z,99292.33
2018-09-08T10:03:12.122Z,99289.78
2018-09-08T10:05:41.093Z,99287.67
2018-09-08T10:08:10.061Z,99281.69
2018-09-08T10:10:39.492Z,99282.89
2018-09-08T10:13:08.373Z,99283.50
2018-09-08T10:15:37.190Z,99275.30
2018-09-08T10:18:06.160Z,99275.23
2018-09-08T10:20:35.013Z,99276.41
2018-09-08T10:23:04.036Z,99273.17
2018-09-08T10:25:33.028Z,99265.97
2018-09-08T10:28:01.888Z,99275.94
2018-09-08T10:30:30.807Z,99278.58
2018-09-08T10:32:59.745Z,99273.06
2018-09-08T10:35:28.631Z,99272.54
2018-09-08T10:37:57.539Z,99283.95
2018-09-08T10:40:27.021Z,99273.73
2018-09-08T10:42:55.909Z,99273.59
2018-09-08T10:45:24.994Z,99273.67
2018-09-08T10:47:54.278Z,99274.45
2018-09-08T10:50:23.343Z,99271.25
2018-09-08T10:52:52.373Z,99271.92
2018-09-08T10:55:27.014Z,99274.66
2018-09-08T10:57:55.857Z,99267.18
2018-09-08T11:00:24.906Z,99267.03
2018-09-08T11:02:54.636Z,99265.87
2018-09-08T11:05:23.272Z,99264.47
2018-09-08T11:07:52.195Z,99263.25
2018-09-08T11:10:21.661Z,99255.16
2018-09-08T11:12:50.527Z,99252.73
2018-09-08T11:15:19.584Z,99255.28
2018-09-08T11:17:48.996Z,99261.20
2018-09-08T11:20:17.834Z,99255.98
2018-09-08T11:22:46.804Z,99243.41
2018-09-08T11:25:15.686Z,99243.33
2018-09-08T11:27:44.581Z,99242.47
2018-09-08T11:30:13.591Z,99236.96
2018-09-08T11:32:43.051Z,99242.78
2018-09-08T11:35:11.966Z,99237.08
2018-09-08T11:37:40.977Z,99241.98
2018-09-08T11:40:10.331Z,99229.59
2018-09-08T11:42:39.190Z,99229.51
2018-09-08T11:45:11.804Z,99232.38
2018-09-08T11:47:40.709Z,99227.62
2018-09-08T11:50:09.553Z,99225.20
2018-09-08T11:52:38.858Z,99227.75
2018-09-08T11:55:07.734Z,99228.66
2018-09-08T11:57:36.604Z,99226.30
2018-09-08T12:00:06.539Z,99216.65
2018-09-08T12:02:35.422Z,99220.16
2018-09-08T12:05:04.362Z,99217.89
2018-09-08T12:07:33.733Z,99222.36
2018-09-08T12:10:02.716Z,99211.99
2018-09-08T12:12:31.714Z,99219.23
2018-09-08T12:15:00.662Z,99204.56
2018-09-08T12:17:29.650Z,99210.67
2018-09-08T12:19:58.585Z,99199.35
2018-09-08T12:22:27.388Z,99197.48
2018-09-08T12:24:56.211Z,99204.58
2018-09-08T12:27:25.145Z,99194.73
2018-09-08T12:29:54.177Z,99203.67
2018-09-08T12:32:23.059Z,99207.61
2018-09-08T12:34:52.042Z,99206.13
2018-09-08T12:37:21.115Z,99204.96
2018-09-08T12:39:50.091Z,99204.43
2018-09-08T12:42:19.022Z,99203.47
2018-09-08T12:44:47.982Z,99210.70
2018-09-08T12:47:16.829Z,99207.02
2018-09-08T12:49:45.730Z,99200.81
2018-09-08T12:52:14.665Z,99195.66
2018-09-08T12:54:43.620Z,99194.05
2018-09-08T12:57:12.542Z,99196.78
2018-09-08T12:59:41.853Z,99195.61
2018-09-08T13:02:10.716Z,99190.17
2018-09-08T13:04:39.633Z,99189.41
2018-09-08T13:07:09.022Z,99189.12
2018-09-08T13:09:37.949Z,99193.74
2018-09-08T13:12:06.925Z,99193.61
2018-09-08T13:14:36.262Z,99192.22
2018-09-08T13:17:05.178Z,99197.68
2018-09-08T13:19:34.097Z,99197.73
2018-09-08T13:22:06.384Z,99202.61
2018-09-08T13:24:35.336Z,99201.41
2018-09-08T13:27:07.870Z,99200.53
2018-09-08T13:29:37.256Z,99199.16
2018-09-08T13:32:06.248Z,99195.00
2018-09-08T13:34:35.203Z,99206.27
2018-09-08T13:37:04.193Z,99199.61
2018-09-08T13:39:33.222Z,99202.63
2018-09-08T13:42:02.696Z,99209.86
2018-09-08T13:44:31.669Z,99206.00
2018-09-08T13:47:00.686Z,99204.24
2018-09-08T13:49:30.114Z,99209.23
2018-09-08T13:51:59.028Z,99221.27
2018-09-08T13:54:28.296Z,99216.01
2018-09-08T13:56:57.237Z,99226.89
2018-09-08T13:59:26.520Z,99211.82
2018-09-08T14:01:55.380Z,99217.70
2018-09-08T14:04:24.668Z,99216.45
2018-09-08T14:06:53.560Z,99215.52
2018-09-08T14:09:22.602Z,99217.20
2018-09-08T14:11:51.777Z,99220.67
2018-09-08T14:14:21.708Z,99210.84
2018-09-08T14:16:50.627Z,99219.45
2018-09-08T14:19:20.504Z,99225.61
2018-09-08T14:21:49.417Z,99226.13
2018-09-08T14:24:18.259Z,99221.21
2018-09-08T14:26:47.605Z,99217.87
2018-09-08T14:29:16.631Z,99218.61
2018-09-08T14:31:45.591Z,99224.36
2018-09-08T14:34:15.036Z,99221.21
2018-09-08T14:36:44.173Z,99223.94
2018-09-08T14:39:13.136Z,99227.39
2018-09-08T14:41:42.140Z,99222.47
2018-09-08T14:44:11.057Z,99231.45
2018-09-08T14:46:40.093Z,99234.83
2018-09-08T14:49:09.492Z,99239.59
2018-09-08T14:51:38.473Z,99249.84
2018-09-08T14:54:07.437Z,99257.69
2018-09-08T14:56:37.352Z,99252.98
2018-09-08T14:59:06.268Z,99258.33
2018-09-08T15:01:35.322Z,99255.70
2018-09-08T15:04:04.223Z,99264.89
2018-09-08T15:06:33.177Z,99264.27
2018-09-08T15:09:02.145Z,99268.95
2018-09-08T15:11:31.163Z,99272.27
2018-09-08T15:14:00.187Z,99271.02
2018-09-08T15:16:29.081Z,99270.39
2018-09-08T15:18:59.108Z,99273.28
2018-09-08T15:21:31.119Z,99275.83
2018-09-08T15:24:00.282Z,99279.38
2018-09-08T15:26:30.287Z,99278.02
2018-09-08T15:28:59.362Z,99282.73
2018-09-08T15:31:29.596Z,99287.55
2018-09-08T15:33:58.463Z,99288.52
2018-09-08T15:36:27.527Z,99289.66
2018-09-08T15:38:56.767Z,99294.96
2018-09-08T15:41:25.733Z,99302.54
2018-09-08T15:43:54.730Z,99300.14
2018-09-08T15:46:23.636Z,99306.98
2018-09-08T15:48:52.662Z,99313.40
2018-09-08T15:51:21.572Z,99314.47
2018-09-08T15:53:50.998Z,99319.41
2018-09-08T15:56:19.963Z,99321.62
2018-09-08T15:58:48.802Z,99327.73
2018-09-08T16:01:18.177Z,99336.11
2018-09-08T16:03:47.102Z,99332.66
2018-09-08T16:06:15.981Z,99337.05
2018-09-08T16:08:44.904Z,99341.95
2018-09-08T16:11:13.809Z,99339.52
2018-09-08T16:13:46.106Z,99339.63
2018-09-08T16:16:15.037Z,99337.23
2018-09-08T16:18:44.049Z,99336.97
2018-09-08T16:21:13.392Z,99338.87
2018-09-08T16:23:42.313Z,99342.89
2018-09-08T16:26:11.321Z,99342.41
2018-09-08T16:28:40.368Z,99347.15
2018-09-08T16:31:09.230Z,99348.59
2018-09-08T16:33:38.293Z,99358.08
2018-09-08T16:36:07.777Z,99364.41
2018-09-08T16:38:40.626Z,99369.65
2018-09-08T16:41:10.005Z,99373.55
2018-09-08T16:43:39.131Z,99378.32
2018-09-08T16:46:08.120Z,99373.81
2018-09-08T16:48:37.059Z,99383.98
2018-09-08T16:51:06.482Z,99385.91
2018-09-08T16:53:35.373Z,99389.66
2018-09-08T16:56:04.413Z,99387.00
2018-09-08T16:58:33.254Z,99384.80
2018-09-08T17:01:02.304Z,99396.48
2018-09-08T17:03:32.867Z,99396.39
2018-09-08T17:06:01.809Z,99399.66
2018-09-08T17:08:30.739Z,99407.13
2018-09-08T17:10:59.955Z,99413.11
2018-09-08T17:13:28.909Z,99417.24
2018-09-08T17:15:57.814Z,99418.81
2018-09-08T17:18:27.218Z,99416.29
2018-09-08T17:20:56.045Z,99421.70
2018-09-08T17:23:25.069Z,99420.53
2018-09-08T17:25:54.551Z,99433.53
2018-09-08T17:28:23.590Z,99425.12
2018-09-08T17:30:52.645Z,99430.20
2018-09-08T17:33:21.978Z,99434.62
2018-09-08T17:35:50.904Z,99437.02
2018-09-08T17:38:19.866Z,99431.28
2018-09-08T17:40:48.762Z,99438.22
2018-09-08T17:43:17.595Z,99443.28
2018-09-08T17:45:46.451Z,99447.20
2018-09-08T17:48:15.897Z,99445.19
2018-09-08T17:50:44.790Z,99446.04
2018-09-08T17:53:13.674Z,99454.65
2018-09-08T17:55:43.192Z,99448.73
2018-09-08T17:58:12.197Z,99452.98
2018-09-08T18:00:40.963Z,99456.36
2018-09-08T18:03:10.009Z,99459.06
2018-09-08T18:05:39.118Z,99459.77
2018-09-08T18:08:07.953Z,99458.56
2018-09-08T18:10:36.998Z,99463.48
2018-09-08T18:13:06.510Z,99458.59
2018-09-08T18:15:39.035Z,99469.57
2018-09-08T18:18:08.030Z,99467.67
2018-09-08T18:20:36.854Z,99473.42
2018-09-08T18:23:05.885Z,99471.88
2018-09-08T18:25:34.832Z,99469.70
2018-09-08T18:28:03.677Z,99473.56
2018-09-08T18:30:32.638Z,99484.34
2018-09-08T18:33:01.562Z,99483.84
2018-09-08T18:35:30.497Z,99482.63
2018-09-08T18:37:59.518Z,99483.62
2018-09-08T18:40:28.566Z,99487.33
2018-09-08T18:42:57.576Z,99481.97
2018-09-08T18:45:26.517Z,99483.63
2018-09-08T18:47:55.540Z,99492.22
2018-09-08T18:50:24.350Z,99489.52
2018-09-08T18:52:57.078Z,99491.03
2018-09-08T18:55:26.009Z,99494.58
2018-09-08T18:57:54.878Z,99497.87
2018-09-08T19:00:27.398Z,99495.83
2018-09-08T19:02:56.295Z,99498.52
2018-09-08T19:05:25.141Z,99495.02
2018-09-08T19:07:54.417Z,99498.89
2018-09-08T19:10:23.382Z,99497.37
2018-09-08T19:12:52.314Z,99498.35
2018-09-08T19:15:21.428Z,99505.93
2018-09-08T19:17:51.102Z,99503.23
2018-09-08T19:20:25.115Z,99508.13
2018-09-08T19:22:53.961Z,99506.40
2018-09-08T19:25:22.963Z,99506.22
2018-09-08T19:27:52.330Z,99513.63
2018-09-08T19:30:21.349Z,99508.23
2018-09-08T19:32:50.445Z,99515.48
2018-09-08T19:35:24.589Z,99522.02
2018-09-08T19:37:53.503Z,99520.33
2018-09-08T19:40:27.412Z,99519.14
2018-09-08T19:42:56.805Z,99517.45
2018-09-08T19:45:25.670Z,99517.47
2018-09-08T19:48:00.148Z,99515.44
2018-09-08T19:50:29.167Z,99519.14
2018-09-08T19:53:03.560Z,99524.13
2018-09-08T19:55:32.520Z,99527.34
2018-09-08T19:58:07.073Z,99530.20
2018-09-08T20:00:36.044Z,99527.50
2018-09-08T20:03:05.004Z,99523.96
2018-09-08T20:05:34.322Z,99524.47
2018-09-08T20:08:03.200Z,99518.92
2018-09-08T20:10:32.080Z,99533.91
2018-09-08T20:13:01.024Z,99529.19
2018-09-08T20:15:30.057Z,99527.16
2018-09-08T20:17:58.896Z,99528.13
2018-09-08T20:20:27.956Z,99528.06
2018-09-08T20:22:56.992Z,99534.50
2018-09-08T20:25:25.909Z,99533.84
2018-09-08T20:27:54.902Z,99543.22
2018-09-08T20:30:23.786Z,99544.22
2018-09-08T20:32:52.876Z,99545.57
2018-09-08T20:35:22.095Z,99544.05
2018-09-08T20:37:51.066Z,99543.37
2018-09-08T20:40:20.068Z,99538.66
2018-09-08T20:42:49.483Z,99543.70
2018-09-08T20:45:18.438Z,99541.70
2018-09-08T20:47:47.645Z,99546.23
2018-09-08T20:50:17.131Z,99549.25
2018-09-08T20:52:46.681Z,99552.53
2018-09-08T20:55:15.692Z,99551.19
2018-09-08T20:57:44.864Z,99554.55
2018-09-08T21:00:13.797Z,99553.20
2018-09-08T21:02:42.698Z,99548.82
2018-09-08T21:05:11.739Z,99546.13
2018-09-08T21:07:40.716Z,99547.80
2018-09-08T21:10:09.648Z,99546.13
2018-09-08T21:12:38.514Z,99554.53
2018-09-08T21:15:07.738Z,99549.83
2018-09-08T21:17:36.606Z,99550.84
2018-09-08T21:20:05.997Z,99554.55
2018-09-08T21:22:34.889Z,99556.44
2018-09-08T21:25:03.853Z,99552.91
2018-09-08T21:27:33.320Z,99551.56
2018-09-08T21:30:02.262Z,99546.13
2018-09-08T21:32:31.113Z,99550.33
2018-09-08T21:35:00.437Z,99545.10
2018-09-08T21:37:29.790Z,99546.40
2018-09-08T21:40:01.858Z,99541.66
2018-09-08T21:42:30.655Z,99547.55
2018-09-08T21:44:59.506Z,99551.37
2018-09-08T21:47:28.766Z,99544.02
2018-09-08T21:49:57.696Z,99542.27
2018-09-08T21:52:26.787Z,99543.62
2018-09-08T21:54:56.054Z,99542.59
2018-09-08T21:57:24.987Z,99544.45
2018-09-08T21:59:54.033Z,99544.10
2018-09-08T22:02:23.322Z,99554.05
2018-09-08T22:04:55.445Z,99547.48
2018-09-08T22:07:24.777Z,99554.41
2018-09-08T22:09:53.735Z,99555.28
2018-09-08T22:12:23.012Z,99558.81
2018-09-08T22:14:52.405Z,99553.61
2018-09-08T22:17:21.681Z,99556.48
2018-09-08T22:19:50.561Z,99549.58
2018-09-08T22:22:19.768Z,99554.30
2018-09-08T22:24:48.794Z,99553.06
2018-09-08T22:27:17.621Z,99557.60
2018-09-08T22:29:49.002Z,99557.26
2018-09-08T22:32:17.996Z,99563.12
2018-09-08T22:34:46.981Z,99562.44
2018-09-08T22:37:15.952Z,99554.31
2018-09-08T22:39:44.891Z,99562.18
2018-09-08T22:42:13.715Z,99553.55
2018-09-08T22:44:43.029Z,99555.22
2018-09-08T22:47:12.240Z,99555.53
2018-09-08T22:49:41.267Z,99563.42
2018-09-08T22:52:10.255Z,99559.89
2018-09-08T22:54:42.975Z,99553.28
2018-09-08T22:57:11.963Z,99562.20
2018-09-08T22:59:40.895Z,99558.33
2018-09-08T23:02:09.780Z,99559.48
2018-09-08T23:04:39.169Z,99559.80
2018-09-08T23:07:08.146Z,99559.96
2018-09-08T23:09:37.064Z,99559.63
2018-09-08T23:12:06.287Z,99552.67
2018-09-08T23:14:35.346Z,99554.02
2018-09-08T23:17:04.279Z,99550.64
2018-09-08T23:19:33.738Z,99552.67
2018-09-08T23:22:02.628Z,99562.75
2018-09-08T23:24:31.524Z,99554.68
2018-09-08T23:27:00.700Z,99555.68
2018-09-08T23:29:29.627Z,99556.71
2018-09-08T23:31:58.457Z,99551.33
2018-09-08T23:34:27.760Z,99548.80
2018-09-08T23:36:56.748Z,99550.67
2018-09-08T23:39:25.693Z,99549.70
2018-09-08T23:41:54.662Z,99553.02
2018-09-08T23:44:23.513Z,99547.30
2018-09-08T23:46:52.445Z,99554.70
2018-09-08T23:49:21.493Z,99546.30
2018-09-08T23:51:50.406Z,99551.17
2018-09-08T23:54:19.404Z,99552.33
2018-09-08T23:56:48.786Z,99552.02
2018-09-08T23:59:17.678Z,99546.45
